sensor_id;sensor_type;location;lat;lon;timestamp;P1;durP1;ratioP1;P2;durP2;ratioP2
49730;SDS011;35622;52.008;5.426;2022-12-16T00:01:11;50.30;;;28.73;;
49730;SDS011;35622;52.008;5.426;2022-12-16T00:03:45;49.37;;;28.93;;
49730;SDS011;35622;52.008;5.426;2022-12-16T00:06:12;48.73;;;29.03;;
49730;SDS011;35622;52.008;5.426;2022-12-16T00:08:38;50.93;;;28.73;;
49730;SDS011;35622;52.008;5.426;2022-12-16T00:11:04;46.90;;;27.57;;
49730;SDS011;35622;52.008;5.426;2022-12-16T00:13:33;48.50;;;27.67;;
49730;SDS011;35622;52.008;5.426;2022-12-16T00:16:04;49.30;;;27.60;;
49730;SDS011;35622;52.008;5.426;2022-12-16T00:18:34;50.43;;;27.77;;
49730;SDS011;35622;52.008;5.426;2022-12-16T00:21:00;47.60;;;26.50;;
49730;SDS011;35622;52.008;5.426;2022-12-16T00:23:27;45.40;;;26.50;;
49730;SDS011;35622;52.008;5.426;2022-12-16T00:25:53;48.50;;;27.70;;
49730;SDS011;35622;52.008;5.426;2022-12-16T00:28:19;48.43;;;26.80;;
49730;SDS011;35622;52.008;5.426;2022-12-16T00:30:51;47.30;;;26.97;;
49730;SDS011;35622;52.008;5.426;2022-12-16T00:33:18;49.30;;;28.00;;
49730;SDS011;35622;52.008;5.426;2022-12-16T00:35:45;48.17;;;28.07;;
49730;SDS011;35622;52.008;5.426;2022-12-16T00:38:10;50.30;;;28.23;;
49730;SDS011;35622;52.008;5.426;2022-12-16T00:40:36;53.80;;;30.67;;
49730;SDS011;35622;52.008;5.426;2022-12-16T00:43:02;53.67;;;29.20;;
49730;SDS011;35622;52.008;5.426;2022-12-16T00:45:28;50.20;;;28.67;;
49730;SDS011;35622;52.008;5.426;2022-12-16T00:47:54;50.97;;;30.10;;
49730;SDS011;35622;52.008;5.426;2022-12-16T00:50:20;53.57;;;30.00;;
49730;SDS011;35622;52.008;5.426;2022-12-16T00:52:46;50.20;;;29.90;;
49730;SDS011;35622;52.008;5.426;2022-12-16T00:55:12;56.80;;;31.00;;
49730;SDS011;35622;52.008;5.426;2022-12-16T00:57:38;51.63;;;29.83;;
49730;SDS011;35622;52.008;5.426;2022-12-16T01:00:05;51.67;;;28.90;;
49730;SDS011;35622;52.008;5.426;2022-12-16T01:02:32;58.13;;;30.33;;
49730;SDS011;35622;52.008;5.426;2022-12-16T01:04:58;53.03;;;29.47;;
49730;SDS011;35622;52.008;5.426;2022-12-16T01:07:24;49.33;;;30.10;;
49730;SDS011;35622;52.008;5.426;2022-12-16T01:09:50;51.17;;;29.33;;
49730;SDS011;35622;52.008;5.426;2022-12-16T01:12:16;53.00;;;30.40;;
49730;SDS011;35622;52.008;5.426;2022-12-16T01:14:42;49.53;;;29.77;;
49730;SDS011;35622;52.008;5.426;2022-12-16T01:17:07;56.20;;;30.47;;
49730;SDS011;35622;52.008;5.426;2022-12-16T01:19:33;50.37;;;29.13;;
49730;SDS011;35622;52.008;5.426;2022-12-16T01:21:58;50.23;;;29.87;;
49730;SDS011;35622;52.008;5.426;2022-12-16T01:24:24;49.70;;;30.00;;
49730;SDS011;35622;52.008;5.426;2022-12-16T01:26:49;52.30;;;30.77;;
49730;SDS011;35622;52.008;5.426;2022-12-16T01:29:15;51.87;;;30.97;;
49730;SDS011;35622;52.008;5.426;2022-12-16T01:31:41;51.47;;;30.97;;
49730;SDS011;35622;52.008;5.426;2022-12-16T01:34:06;50.77;;;30.57;;
49730;SDS011;35622;52.008;5.426;2022-12-16T01:36:32;51.83;;;30.07;;
49730;SDS011;35622;52.008;5.426;2022-12-16T01:38:58;49.60;;;30.50;;
49730;SDS011;35622;52.008;5.426;2022-12-16T01:41:23;49.37;;;29.37;;
49730;SDS011;35622;52.008;5.426;2022-12-16T01:43:49;51.57;;;30.93;;
49730;SDS011;35622;52.008;5.426;2022-12-16T01:46:19;51.00;;;29.50;;
49730;SDS011;35622;52.008;5.426;2022-12-16T01:48:53;48.43;;;30.20;;
49730;SDS011;35622;52.008;5.426;2022-12-16T01:51:36;52.40;;;30.13;;
49730;SDS011;35622;52.008;5.426;2022-12-16T01:54:05;50.10;;;30.03;;
49730;SDS011;35622;52.008;5.426;2022-12-16T01:56:34;50.80;;;31.63;;
49730;SDS011;35622;52.008;5.426;2022-12-16T01:59:03;52.47;;;30.97;;
49730;SDS011;35622;52.008;5.426;2022-12-16T02:01:29;51.20;;;30.63;;
49730;SDS011;35622;52.008;5.426;2022-12-16T02:03:55;51.43;;;31.13;;
49730;SDS011;35622;52.008;5.426;2022-12-16T02:06:25;45.93;;;29.40;;
49730;SDS011;35622;52.008;5.426;2022-12-16T02:08:54;49.57;;;29.87;;
49730;SDS011;35622;52.008;5.426;2022-12-16T02:12:10;53.87;;;31.67;;
49730;SDS011;35622;52.008;5.426;2022-12-16T02:23:11;50.87;;;30.67;;
49730;SDS011;35622;52.008;5.426;2022-12-16T02:39:46;53.17;;;30.77;;
49730;SDS011;35622;52.008;5.426;2022-12-16T02:44:59;56.17;;;31.93;;
49730;SDS011;35622;52.008;5.426;2022-12-16T02:47:32;50.77;;;31.57;;
49730;SDS011;35622;52.008;5.426;2022-12-16T02:49:58;47.53;;;30.63;;
49730;SDS011;35622;52.008;5.426;2022-12-16T02:52:28;50.37;;;31.47;;
49730;SDS011;35622;52.008;5.426;2022-12-16T02:54:57;52.60;;;30.87;;
49730;SDS011;35622;52.008;5.426;2022-12-16T03:00:22;51.70;;;31.37;;
49730;SDS011;35622;52.008;5.426;2022-12-16T03:03:10;52.77;;;31.40;;
49730;SDS011;35622;52.008;5.426;2022-12-16T03:05:41;48.67;;;30.83;;
49730;SDS011;35622;52.008;5.426;2022-12-16T03:08:13;52.03;;;31.97;;
49730;SDS011;35622;52.008;5.426;2022-12-16T03:11:00;50.00;;;31.40;;
49730;SDS011;35622;52.008;5.426;2022-12-16T03:13:30;51.70;;;31.50;;
49730;SDS011;35622;52.008;5.426;2022-12-16T03:15:59;47.33;;;30.50;;
49730;SDS011;35622;52.008;5.426;2022-12-16T03:18:27;51.77;;;31.23;;
49730;SDS011;35622;52.008;5.426;2022-12-16T03:21:03;50.43;;;30.93;;
49730;SDS011;35622;52.008;5.426;2022-12-16T03:24:04;49.73;;;30.50;;
49730;SDS011;35622;52.008;5.426;2022-12-16T03:26:32;47.13;;;30.43;;
49730;SDS011;35622;52.008;5.426;2022-12-16T03:29:04;51.10;;;31.40;;
49730;SDS011;35622;52.008;5.426;2022-12-16T03:34:16;51.07;;;31.10;;
49730;SDS011;35622;52.008;5.426;2022-12-16T03:36:46;53.27;;;31.73;;
49730;SDS011;35622;52.008;5.426;2022-12-16T03:39:15;50.87;;;31.63;;
49730;SDS011;35622;52.008;5.426;2022-12-16T03:41:43;47.43;;;30.80;;
49730;SDS011;35622;52.008;5.426;2022-12-16T03:44:13;51.07;;;31.13;;
49730;SDS011;35622;52.008;5.426;2022-12-16T03:46:39;51.70;;;31.53;;
49730;SDS011;35622;52.008;5.426;2022-12-16T03:49:05;54.63;;;32.33;;
49730;SDS011;35622;52.008;5.426;2022-12-16T03:51:30;48.60;;;30.67;;
49730;SDS011;35622;52.008;5.426;2022-12-16T03:53:56;49.27;;;29.67;;
49730;SDS011;35622;52.008;5.426;2022-12-16T03:56:21;47.90;;;28.60;;
49730;SDS011;35622;52.008;5.426;2022-12-16T03:58:47;50.60;;;30.03;;
49730;SDS011;35622;52.008;5.426;2022-12-16T04:01:13;51.60;;;31.27;;
49730;SDS011;35622;52.008;5.426;2022-12-16T04:03:39;46.53;;;28.97;;
49730;SDS011;35622;52.008;5.426;2022-12-16T04:06:05;50.97;;;30.43;;
49730;SDS011;35622;52.008;5.426;2022-12-16T04:08:31;52.97;;;30.43;;
49730;SDS011;35622;52.008;5.426;2022-12-16T04:10:56;50.37;;;30.30;;
49730;SDS011;35622;52.008;5.426;2022-12-16T04:13:40;52.07;;;28.37;;
49730;SDS011;35622;52.008;5.426;2022-12-16T04:16:25;52.13;;;28.60;;
49730;SDS011;35622;52.008;5.426;2022-12-16T04:19:14;48.63;;;28.77;;
49730;SDS011;35622;52.008;5.426;2022-12-16T04:22:03;47.93;;;28.73;;
49730;SDS011;35622;52.008;5.426;2022-12-16T04:24:48;51.93;;;28.40;;
49730;SDS011;35622;52.008;5.426;2022-12-16T04:27:14;49.83;;;27.33;;
49730;SDS011;35622;52.008;5.426;2022-12-16T04:29:48;50.37;;;27.87;;
49730;SDS011;35622;52.008;5.426;2022-12-16T04:32:33;50.30;;;26.97;;
49730;SDS011;35622;52.008;5.426;2022-12-16T04:35:17;44.77;;;26.63;;
49730;SDS011;35622;52.008;5.426;2022-12-16T04:38:01;51.33;;;27.20;;
49730;SDS011;35622;52.008;5.426;2022-12-16T04:40:46;49.00;;;27.27;;
49730;SDS011;35622;52.008;5.426;2022-12-16T04:43:30;43.77;;;25.73;;
49730;SDS011;35622;52.008;5.426;2022-12-16T04:46:14;45.20;;;26.63;;
49730;SDS011;35622;52.008;5.426;2022-12-16T04:48:58;47.17;;;26.47;;
49730;SDS011;35622;52.008;5.426;2022-12-16T04:51:42;41.17;;;26.43;;
49730;SDS011;35622;52.008;5.426;2022-12-16T04:54:26;41.70;;;25.43;;
49730;SDS011;35622;52.008;5.426;2022-12-16T04:57:10;45.63;;;26.13;;
49730;SDS011;35622;52.008;5.426;2022-12-16T04:59:54;44.53;;;25.70;;
49730;SDS011;35622;52.008;5.426;2022-12-16T05:02:38;45.70;;;25.23;;
49730;SDS011;35622;52.008;5.426;2022-12-16T05:05:22;41.20;;;23.60;;
49730;SDS011;35622;52.008;5.426;2022-12-16T05:08:06;38.87;;;24.53;;
49730;SDS011;35622;52.008;5.426;2022-12-16T05:10:50;42.43;;;23.47;;
49730;SDS011;35622;52.008;5.426;2022-12-16T05:13:34;41.87;;;24.87;;
49730;SDS011;35622;52.008;5.426;2022-12-16T05:16:18;40.20;;;23.13;;
49730;SDS011;35622;52.008;5.426;2022-12-16T05:19:02;41.87;;;24.03;;
49730;SDS011;35622;52.008;5.426;2022-12-16T05:21:46;41.03;;;23.77;;
49730;SDS011;35622;52.008;5.426;2022-12-16T05:24:30;38.27;;;23.07;;
49730;SDS011;35622;52.008;5.426;2022-12-16T05:27:14;36.80;;;23.17;;
49730;SDS011;35622;52.008;5.426;2022-12-16T05:29:58;39.57;;;22.90;;
49730;SDS011;35622;52.008;5.426;2022-12-16T05:32:42;39.80;;;24.03;;
49730;SDS011;35622;52.008;5.426;2022-12-16T05:35:26;39.97;;;23.43;;
49730;SDS011;35622;52.008;5.426;2022-12-16T05:38:10;42.70;;;23.17;;
49730;SDS011;35622;52.008;5.426;2022-12-16T05:40:54;39.63;;;23.17;;
49730;SDS011;35622;52.008;5.426;2022-12-16T05:43:38;38.17;;;22.80;;
49730;SDS011;35622;52.008;5.426;2022-12-16T05:46:22;41.03;;;23.10;;
49730;SDS011;35622;52.008;5.426;2022-12-16T05:49:06;37.67;;;22.57;;
49730;SDS011;35622;52.008;5.426;2022-12-16T05:51:50;34.10;;;20.57;;
49730;SDS011;35622;52.008;5.426;2022-12-16T05:54:34;39.10;;;21.83;;
49730;SDS011;35622;52.008;5.426;2022-12-16T05:57:18;40.70;;;22.57;;
49730;SDS011;35622;52.008;5.426;2022-12-16T06:00:03;36.43;;;21.30;;
49730;SDS011;35622;52.008;5.426;2022-12-16T06:02:48;39.13;;;23.02;;
49730;SDS011;35622;52.008;5.426;2022-12-16T06:05:32;43.37;;;23.57;;
49730;SDS011;35622;52.008;5.426;2022-12-16T06:08:16;43.27;;;22.17;;
49730;SDS011;35622;52.008;5.426;2022-12-16T06:11:00;39.83;;;21.67;;
49730;SDS011;35622;52.008;5.426;2022-12-16T06:13:44;41.27;;;22.13;;
49730;SDS011;35622;52.008;5.426;2022-12-16T06:16:29;40.67;;;22.57;;
49730;SDS011;35622;52.008;5.426;2022-12-16T06:19:13;39.77;;;23.07;;
49730;SDS011;35622;52.008;5.426;2022-12-16T06:21:57;38.47;;;21.33;;
49730;SDS011;35622;52.008;5.426;2022-12-16T06:24:41;41.97;;;22.20;;
49730;SDS011;35622;52.008;5.426;2022-12-16T06:27:25;37.83;;;21.10;;
49730;SDS011;35622;52.008;5.426;2022-12-16T06:30:09;37.00;;;20.97;;
49730;SDS011;35622;52.008;5.426;2022-12-16T06:32:53;41.07;;;20.93;;
49730;SDS011;35622;52.008;5.426;2022-12-16T06:35:37;35.20;;;20.33;;
49730;SDS011;35622;52.008;5.426;2022-12-16T06:38:21;39.63;;;21.37;;
49730;SDS011;35622;52.008;5.426;2022-12-16T06:41:05;36.53;;;20.60;;
49730;SDS011;35622;52.008;5.426;2022-12-16T06:43:50;36.63;;;20.87;;
49730;SDS011;35622;52.008;5.426;2022-12-16T06:46:33;36.47;;;20.17;;
49730;SDS011;35622;52.008;5.426;2022-12-16T06:49:18;36.57;;;21.13;;
49730;SDS011;35622;52.008;5.426;2022-12-16T06:52:02;33.57;;;20.23;;
49730;SDS011;35622;52.008;5.426;2022-12-16T06:54:46;37.10;;;20.20;;
49730;SDS011;35622;52.008;5.426;2022-12-16T06:57:30;35.03;;;20.57;;
49730;SDS011;35622;52.008;5.426;2022-12-16T07:00:14;37.23;;;19.83;;
49730;SDS011;35622;52.008;5.426;2022-12-16T07:02:58;43.30;;;22.30;;
49730;SDS011;35622;52.008;5.426;2022-12-16T07:05:42;38.43;;;19.77;;
49730;SDS011;35622;52.008;5.426;2022-12-16T07:08:26;38.43;;;20.87;;
49730;SDS011;35622;52.008;5.426;2022-12-16T07:11:10;36.93;;;20.23;;
49730;SDS011;35622;52.008;5.426;2022-12-16T07:13:54;35.53;;;20.33;;
49730;SDS011;35622;52.008;5.426;2022-12-16T07:16:38;38.40;;;20.23;;
49730;SDS011;35622;52.008;5.426;2022-12-16T07:19:22;39.23;;;19.40;;
49730;SDS011;35622;52.008;5.426;2022-12-16T07:22:06;36.80;;;19.73;;
49730;SDS011;35622;52.008;5.426;2022-12-16T07:24:50;35.37;;;20.43;;
49730;SDS011;35622;52.008;5.426;2022-12-16T07:27:34;38.93;;;19.53;;
49730;SDS011;35622;52.008;5.426;2022-12-16T07:30:18;41.13;;;21.67;;
49730;SDS011;35622;52.008;5.426;2022-12-16T07:33:02;36.63;;;20.37;;
49730;SDS011;35622;52.008;5.426;2022-12-16T07:35:46;32.97;;;20.20;;
49730;SDS011;35622;52.008;5.426;2022-12-16T07:38:30;34.77;;;19.60;;
49730;SDS011;35622;52.008;5.426;2022-12-16T07:41:14;35.30;;;19.93;;
49730;SDS011;35622;52.008;5.426;2022-12-16T07:43:58;34.33;;;19.17;;
49730;SDS011;35622;52.008;5.426;2022-12-16T07:46:42;32.33;;;18.50;;
49730;SDS011;35622;52.008;5.426;2022-12-16T07:49:26;31.47;;;18.57;;
49730;SDS011;35622;52.008;5.426;2022-12-16T07:52:10;35.30;;;18.47;;
49730;SDS011;35622;52.008;5.426;2022-12-16T07:54:54;37.83;;;19.23;;
49730;SDS011;35622;52.008;5.426;2022-12-16T07:57:47;32.40;;;18.53;;
49730;SDS011;35622;52.008;5.426;2022-12-16T08:00:33;35.23;;;17.90;;
49730;SDS011;35622;52.008;5.426;2022-12-16T08:03:17;33.27;;;18.23;;
49730;SDS011;35622;52.008;5.426;2022-12-16T08:06:01;31.93;;;17.93;;
49730;SDS011;35622;52.008;5.426;2022-12-16T08:08:45;31.27;;;17.43;;
49730;SDS011;35622;52.008;5.426;2022-12-16T08:11:29;34.70;;;17.83;;
49730;SDS011;35622;52.008;5.426;2022-12-16T08:14:13;32.00;;;18.10;;
49730;SDS011;35622;52.008;5.426;2022-12-16T08:16:57;32.80;;;18.30;;
49730;SDS011;35622;52.008;5.426;2022-12-16T08:19:41;32.73;;;16.73;;
49730;SDS011;35622;52.008;5.426;2022-12-16T08:22:25;30.10;;;17.47;;
49730;SDS011;35622;52.008;5.426;2022-12-16T08:25:09;28.63;;;17.07;;
49730;SDS011;35622;52.008;5.426;2022-12-16T08:27:54;31.27;;;16.67;;
49730;SDS011;35622;52.008;5.426;2022-12-16T08:30:39;30.10;;;17.37;;
49730;SDS011;35622;52.008;5.426;2022-12-16T08:33:23;27.90;;;16.50;;
49730;SDS011;35622;52.008;5.426;2022-12-16T08:36:07;28.17;;;16.70;;
49730;SDS011;35622;52.008;5.426;2022-12-16T08:38:51;29.80;;;16.87;;
49730;SDS011;35622;52.008;5.426;2022-12-16T08:41:37;29.43;;;16.63;;
49730;SDS011;35622;52.008;5.426;2022-12-16T08:44:21;31.43;;;16.57;;
49730;SDS011;35622;52.008;5.426;2022-12-16T08:47:05;28.13;;;16.23;;
49730;SDS011;35622;52.008;5.426;2022-12-16T08:49:49;27.70;;;15.53;;
49730;SDS011;35622;52.008;5.426;2022-12-16T08:52:33;26.37;;;16.50;;
49730;SDS011;35622;52.008;5.426;2022-12-16T08:55:17;32.63;;;17.67;;
49730;SDS011;35622;52.008;5.426;2022-12-16T08:58:01;28.90;;;17.23;;
49730;SDS011;35622;52.008;5.426;2022-12-16T09:00:45;28.23;;;16.97;;
49730;SDS011;35622;52.008;5.426;2022-12-16T09:03:29;30.87;;;15.30;;
49730;SDS011;35622;52.008;5.426;2022-12-16T09:06:13;28.47;;;16.23;;
49730;SDS011;35622;52.008;5.426;2022-12-16T09:08:57;27.20;;;15.37;;
49730;SDS011;35622;52.008;5.426;2022-12-16T09:11:41;30.47;;;19.13;;
49730;SDS011;35622;52.008;5.426;2022-12-16T09:14:25;33.07;;;21.47;;
49730;SDS011;35622;52.008;5.426;2022-12-16T09:17:09;31.43;;;19.07;;
49730;SDS011;35622;52.008;5.426;2022-12-16T09:19:53;28.13;;;17.90;;
49730;SDS011;35622;52.008;5.426;2022-12-16T09:22:37;29.37;;;18.93;;
49730;SDS011;35622;52.008;5.426;2022-12-16T09:25:21;28.37;;;18.33;;
49730;SDS011;35622;52.008;5.426;2022-12-16T09:28:05;32.73;;;19.83;;
49730;SDS011;35622;52.008;5.426;2022-12-16T09:30:49;30.63;;;21.07;;
49730;SDS011;35622;52.008;5.426;2022-12-16T09:33:33;27.67;;;17.17;;
49730;SDS011;35622;52.008;5.426;2022-12-16T09:36:18;26.80;;;16.40;;
49730;SDS011;35622;52.008;5.426;2022-12-16T09:39:02;27.93;;;16.40;;
49730;SDS011;35622;52.008;5.426;2022-12-16T09:41:59;25.00;;;15.60;;
49730;SDS011;35622;52.008;5.426;2022-12-16T09:44:59;21.50;;;14.53;;
49730;SDS011;35622;52.008;5.426;2022-12-16T09:51:03;22.93;;;13.83;;
49730;SDS011;35622;52.008;5.426;2022-12-16T09:53:50;19.00;;;11.90;;
49730;SDS011;35622;52.008;5.426;2022-12-16T09:56:36;20.90;;;13.17;;
49730;SDS011;35622;52.008;5.426;2022-12-16T09:59:23;21.00;;;12.20;;
49730;SDS011;35622;52.008;5.426;2022-12-16T10:02:14;17.83;;;11.87;;
49730;SDS011;35622;52.008;5.426;2022-12-16T10:05:00;18.33;;;11.27;;
49730;SDS011;35622;52.008;5.426;2022-12-16T10:07:51;21.47;;;12.50;;
49730;SDS011;35622;52.008;5.426;2022-12-16T10:10:54;23.33;;;12.50;;
49730;SDS011;35622;52.008;5.426;2022-12-16T10:13:55;18.23;;;11.97;;
49730;SDS011;35622;52.008;5.426;2022-12-16T10:16:47;22.37;;;11.83;;
49730;SDS011;35622;52.008;5.426;2022-12-16T10:20:02;16.90;;;10.43;;
49730;SDS011;35622;52.008;5.426;2022-12-16T10:22:53;15.63;;;10.03;;
49730;SDS011;35622;52.008;5.426;2022-12-16T10:25:46;13.07;;;8.90;;
49730;SDS011;35622;52.008;5.426;2022-12-16T10:28:46;13.53;;;8.33;;
49730;SDS011;35622;52.008;5.426;2022-12-16T10:31:31;12.50;;;7.13;;
49730;SDS011;35622;52.008;5.426;2022-12-16T10:34:23;14.53;;;9.00;;
49730;SDS011;35622;52.008;5.426;2022-12-16T10:37:12;12.77;;;8.57;;
49730;SDS011;35622;52.008;5.426;2022-12-16T10:40:03;13.63;;;8.57;;
49730;SDS011;35622;52.008;5.426;2022-12-16T10:43:36;12.47;;;8.53;;
49730;SDS011;35622;52.008;5.426;2022-12-16T10:46:14;12.70;;;8.57;;
49730;SDS011;35622;52.008;5.426;2022-12-16T10:49:02;9.73;;;7.60;;
49730;SDS011;35622;52.008;5.426;2022-12-16T10:51:47;12.85;;;7.47;;
49730;SDS011;35622;52.008;5.426;2022-12-16T10:54:32;12.65;;;7.82;;
49730;SDS011;35622;52.008;5.426;2022-12-16T11:00:20;9.47;;;6.47;;
49730;SDS011;35622;52.008;5.426;2022-12-16T11:03:34;11.37;;;6.80;;
49730;SDS011;35622;52.008;5.426;2022-12-16T11:06:26;9.43;;;6.00;;
49730;SDS011;35622;52.008;5.426;2022-12-16T11:18:10;14.82;;;7.75;;
49730;SDS011;35622;52.008;5.426;2022-12-16T11:21:03;13.67;;;8.37;;
49730;SDS011;35622;52.008;5.426;2022-12-16T11:24:03;15.02;;;8.48;;
49730;SDS011;35622;52.008;5.426;2022-12-16T11:26:54;13.55;;;9.43;;
49730;SDS011;35622;52.008;5.426;2022-12-16T11:32:34;20.35;;;11.10;;
49730;SDS011;35622;52.008;5.426;2022-12-16T11:35:22;21.15;;;11.48;;
49730;SDS011;35622;52.008;5.426;2022-12-16T11:38:15;15.98;;;10.73;;
49730;SDS011;35622;52.008;5.426;2022-12-16T11:41:07;18.30;;;12.30;;
49730;SDS011;35622;52.008;5.426;2022-12-16T11:43:58;22.13;;;13.50;;
49730;SDS011;35622;52.008;5.426;2022-12-16T11:46:43;20.07;;;12.53;;
49730;SDS011;35622;52.008;5.426;2022-12-16T11:49:32;23.63;;;13.97;;
49730;SDS011;35622;52.008;5.426;2022-12-16T11:52:20;23.67;;;14.77;;
49730;SDS011;35622;52.008;5.426;2022-12-16T11:57:52;22.53;;;14.03;;
49730;SDS011;35622;52.008;5.426;2022-12-16T12:00:48;21.77;;;13.27;;
49730;SDS011;35622;52.008;5.426;2022-12-16T12:03:44;24.67;;;15.30;;
49730;SDS011;35622;52.008;5.426;2022-12-16T12:06:39;22.90;;;15.03;;
49730;SDS011;35622;52.008;5.426;2022-12-16T12:09:40;22.90;;;14.27;;
49730;SDS011;35622;52.008;5.426;2022-12-16T12:15:27;23.83;;;14.87;;
49730;SDS011;35622;52.008;5.426;2022-12-16T12:21:33;22.43;;;14.47;;
49730;SDS011;35622;52.008;5.426;2022-12-16T12:24:42;24.83;;;15.10;;
49730;SDS011;35622;52.008;5.426;2022-12-16T12:30:43;23.63;;;15.20;;
49730;SDS011;35622;52.008;5.426;2022-12-16T12:34:16;21.90;;;14.03;;
49730;SDS011;35622;52.008;5.426;2022-12-16T12:40:40;22.77;;;14.00;;
49730;SDS011;35622;52.008;5.426;2022-12-16T12:46:56;21.33;;;14.03;;
49730;SDS011;35622;52.008;5.426;2022-12-16T12:58:57;24.43;;;15.57;;
49730;SDS011;35622;52.008;5.426;2022-12-16T13:01:45;21.97;;;14.67;;
49730;SDS011;35622;52.008;5.426;2022-12-16T13:04:30;22.17;;;13.80;;
49730;SDS011;35622;52.008;5.426;2022-12-16T13:07:15;22.03;;;15.10;;
49730;SDS011;35622;52.008;5.426;2022-12-16T13:10:10;21.40;;;14.83;;
49730;SDS011;35622;52.008;5.426;2022-12-16T13:15:57;25.17;;;16.13;;
49730;SDS011;35622;52.008;5.426;2022-12-16T13:18:42;23.83;;;15.23;;
49730;SDS011;35622;52.008;5.426;2022-12-16T13:27:43;25.53;;;15.97;;
49730;SDS011;35622;52.008;5.426;2022-12-16T13:30:29;27.47;;;17.60;;
49730;SDS011;35622;52.008;5.426;2022-12-16T13:33:22;28.57;;;18.20;;
49730;SDS011;35622;52.008;5.426;2022-12-16T13:36:14;28.30;;;17.77;;
49730;SDS011;35622;52.008;5.426;2022-12-16T13:39:04;28.63;;;17.80;;
49730;SDS011;35622;52.008;5.426;2022-12-16T13:45:38;26.40;;;16.53;;
49730;SDS011;35622;52.008;5.426;2022-12-16T13:48:31;28.20;;;18.30;;
49730;SDS011;35622;52.008;5.426;2022-12-16T13:54:50;31.63;;;18.17;;
49730;SDS011;35622;52.008;5.426;2022-12-16T13:57:41;26.17;;;17.97;;
49730;SDS011;35622;52.008;5.426;2022-12-16T14:00:26;30.63;;;19.57;;
49730;SDS011;35622;52.008;5.426;2022-12-16T14:03:19;29.87;;;18.47;;
49730;SDS011;35622;52.008;5.426;2022-12-16T14:06:27;29.67;;;18.83;;
49730;SDS011;35622;52.008;5.426;2022-12-16T14:09:23;29.57;;;19.00;;
49730;SDS011;35622;52.008;5.426;2022-12-16T14:12:24;30.00;;;19.30;;
49730;SDS011;35622;52.008;5.426;2022-12-16T14:15:32;29.47;;;18.87;;
49730;SDS011;35622;52.008;5.426;2022-12-16T14:21:15;30.97;;;19.77;;
49730;SDS011;35622;52.008;5.426;2022-12-16T14:24:13;31.33;;;18.83;;
49730;SDS011;35622;52.008;5.426;2022-12-16T14:27:11;31.23;;;18.53;;
49730;SDS011;35622;52.008;5.426;2022-12-16T14:29:57;26.77;;;17.23;;
49730;SDS011;35622;52.008;5.426;2022-12-16T14:32:41;27.20;;;17.70;;
49730;SDS011;35622;52.008;5.426;2022-12-16T14:35:26;28.63;;;18.20;;
49730;SDS011;35622;52.008;5.426;2022-12-16T14:38:24;26.60;;;16.67;;
49730;SDS011;35622;52.008;5.426;2022-12-16T14:41:14;28.80;;;18.70;;
49730;SDS011;35622;52.008;5.426;2022-12-16T14:44:00;28.07;;;17.20;;
49730;SDS011;35622;52.008;5.426;2022-12-16T14:46:48;27.97;;;17.03;;
49730;SDS011;35622;52.008;5.426;2022-12-16T14:49:33;28.17;;;18.03;;
49730;SDS011;35622;52.008;5.426;2022-12-16T14:52:24;26.23;;;16.83;;
49730;SDS011;35622;52.008;5.426;2022-12-16T14:58:04;22.77;;;15.70;;
49730;SDS011;35622;52.008;5.426;2022-12-16T15:00:49;30.98;;;22.10;;
49730;SDS011;35622;52.008;5.426;2022-12-16T15:03:36;31.93;;;21.87;;
49730;SDS011;35622;52.008;5.426;2022-12-16T15:06:27;32.37;;;20.63;;
49730;SDS011;35622;52.008;5.426;2022-12-16T15:12:07;33.43;;;19.77;;
49730;SDS011;35622;52.008;5.426;2022-12-16T15:14:53;36.00;;;21.73;;
49730;SDS011;35622;52.008;5.426;2022-12-16T15:17:54;32.83;;;20.77;;
49730;SDS011;35622;52.008;5.426;2022-12-16T15:20:51;36.37;;;21.23;;
49730;SDS011;35622;52.008;5.426;2022-12-16T15:23:41;33.50;;;21.57;;
49730;SDS011;35622;52.008;5.426;2022-12-16T15:26:31;34.00;;;20.70;;
49730;SDS011;35622;52.008;5.426;2022-12-16T15:29:50;34.47;;;22.17;;
49730;SDS011;35622;52.008;5.426;2022-12-16T15:32:28;34.00;;;20.40;;
49730;SDS011;35622;52.008;5.426;2022-12-16T15:35:30;29.97;;;19.10;;
49730;SDS011;35622;52.008;5.426;2022-12-16T15:41:19;31.17;;;19.67;;
49730;SDS011;35622;52.008;5.426;2022-12-16T15:44:15;33.20;;;20.73;;
49730;SDS011;35622;52.008;5.426;2022-12-16T15:47:15;35.17;;;21.57;;
49730;SDS011;35622;52.008;5.426;2022-12-16T15:50:14;37.23;;;21.50;;
49730;SDS011;35622;52.008;5.426;2022-12-16T15:56:19;37.07;;;21.53;;
49730;SDS011;35622;52.008;5.426;2022-12-16T15:59:20;31.27;;;19.43;;
49730;SDS011;35622;52.008;5.426;2022-12-16T16:02:25;33.47;;;19.47;;
49730;SDS011;35622;52.008;5.426;2022-12-16T16:08:02;33.50;;;19.50;;
49730;SDS011;35622;52.008;5.426;2022-12-16T16:10:46;30.57;;;18.70;;
49730;SDS011;35622;52.008;5.426;2022-12-16T16:13:30;33.80;;;20.03;;
49730;SDS011;35622;52.008;5.426;2022-12-16T16:16:15;29.73;;;17.97;;
49730;SDS011;35622;52.008;5.426;2022-12-16T16:18:59;30.80;;;18.70;;
49730;SDS011;35622;52.008;5.426;2022-12-16T16:21:44;34.53;;;20.37;;
49730;SDS011;35622;52.008;5.426;2022-12-16T16:24:28;33.47;;;19.67;;
49730;SDS011;35622;52.008;5.426;2022-12-16T16:27:13;35.07;;;20.53;;
49730;SDS011;35622;52.008;5.426;2022-12-16T16:29:58;36.93;;;22.53;;
49730;SDS011;35622;52.008;5.426;2022-12-16T16:32:43;33.03;;;20.63;;
49730;SDS011;35622;52.008;5.426;2022-12-16T16:35:28;34.93;;;21.17;;
49730;SDS011;35622;52.008;5.426;2022-12-16T16:38:16;32.40;;;20.73;;
49730;SDS011;35622;52.008;5.426;2022-12-16T16:41:01;33.67;;;21.50;;
49730;SDS011;35622;52.008;5.426;2022-12-16T16:43:45;35.20;;;21.70;;
49730;SDS011;35622;52.008;5.426;2022-12-16T16:49:24;35.17;;;20.43;;
49730;SDS011;35622;52.008;5.426;2022-12-16T16:52:13;36.50;;;22.13;;
49730;SDS011;35622;52.008;5.426;2022-12-16T16:54:59;34.80;;;21.03;;
49730;SDS011;35622;52.008;5.426;2022-12-16T16:57:44;33.80;;;20.30;;
49730;SDS011;35622;52.008;5.426;2022-12-16T17:00:28;35.87;;;21.63;;
49730;SDS011;35622;52.008;5.426;2022-12-16T17:03:13;34.50;;;19.97;;
49730;SDS011;35622;52.008;5.426;2022-12-16T17:05:57;37.60;;;22.03;;
49730;SDS011;35622;52.008;5.426;2022-12-16T17:09:01;37.67;;;22.23;;
49730;SDS011;35622;52.008;5.426;2022-12-16T17:11:46;37.73;;;21.80;;
49730;SDS011;35622;52.008;5.426;2022-12-16T17:14:30;38.53;;;22.40;;
49730;SDS011;35622;52.008;5.426;2022-12-16T17:17:14;36.30;;;21.27;;
49730;SDS011;35622;52.008;5.426;2022-12-16T17:19:58;39.20;;;22.20;;
49730;SDS011;35622;52.008;5.426;2022-12-16T17:22:42;40.33;;;23.20;;
49730;SDS011;35622;52.008;5.426;2022-12-16T17:25:27;40.87;;;24.03;;
49730;SDS011;35622;52.008;5.426;2022-12-16T17:28:11;39.90;;;24.37;;
49730;SDS011;35622;52.008;5.426;2022-12-16T17:30:57;42.90;;;23.47;;
49730;SDS011;35622;52.008;5.426;2022-12-16T17:33:41;42.17;;;24.07;;
49730;SDS011;35622;52.008;5.426;2022-12-16T17:36:39;46.53;;;26.07;;
49730;SDS011;35622;52.008;5.426;2022-12-16T17:39:23;42.47;;;24.50;;
49730;SDS011;35622;52.008;5.426;2022-12-16T17:42:07;47.93;;;27.37;;
49730;SDS011;35622;52.008;5.426;2022-12-16T17:44:51;49.37;;;29.93;;
49730;SDS011;35622;52.008;5.426;2022-12-16T17:47:35;54.27;;;30.63;;
49730;SDS011;35622;52.008;5.426;2022-12-16T17:50:19;45.00;;;26.50;;